sensor_id;sensor_type;location;lat;lon;timestamp;temperature;humidity
69944;DHT22;57257;48.408;-4.498;2023-07-22T00:01:11;18.82;62.91
69944;DHT22;57257;48.408;-4.498;2023-07-22T00:03:36;18.82;63.02
69944;DHT22;57257;48.408;-4.498;2023-07-22T00:06:08;18.81;63.32
69944;DHT22;57257;48.408;-4.498;2023-07-22T00:08:34;18.83;62.76
69944;DHT22;57257;48.408;-4.498;2023-07-22T00:11:00;18.77;63.12
69944;DHT22;57257;48.408;-4.498;2023-07-22T00:13:26;18.81;62.95
69944;DHT22;57257;48.408;-4.498;2023-07-22T00:15:53;18.77;63.40
69944;DHT22;57257;48.408;-4.498;2023-07-22T00:18:18;18.77;63.42
69944;DHT22;57257;48.408;-4.498;2023-07-22T00:20:44;18.76;63.30
69944;DHT22;57257;48.408;-4.498;2023-07-22T00:23:09;18.76;63.17
69944;DHT22;57257;48.408;-4.498;2023-07-22T00:25:36;18.71;63.54
69944;DHT22;57257;48.408;-4.498;2023-07-22T00:28:01;18.73;63.61
69944;DHT22;57257;48.408;-4.498;2023-07-22T00:30:26;18.72;63.67
69944;DHT22;57257;48.408;-4.498;2023-07-22T00:32:53;18.72;63.85
69944;DHT22;57257;48.408;-4.498;2023-07-22T00:35:19;18.72;63.99
69944;DHT22;57257;48.408;-4.498;2023-07-22T00:37:44;18.75;64.08
69944;DHT22;57257;48.408;-4.498;2023-07-22T00:40:10;18.71;63.81
69944;DHT22;57257;48.408;-4.498;2023-07-22T00:42:39;18.72;63.96
69944;DHT22;57257;48.408;-4.498;2023-07-22T00:45:05;18.69;64.09
69944;DHT22;57257;48.408;-4.498;2023-07-22T00:47:33;18.69;63.94
69944;DHT22;57257;48.408;-4.498;2023-07-22T00:50:00;18.69;63.98
69944;DHT22;57257;48.408;-4.498;2023-07-22T00:52:26;18.65;63.98
69944;DHT22;57257;48.408;-4.498;2023-07-22T00:54:52;18.65;63.95
69944;DHT22;57257;48.408;-4.498;2023-07-22T00:57:18;18.63;64.29
69944;DHT22;57257;48.408;-4.498;2023-07-22T00:59:44;18.61;63.93
69944;DHT22;57257;48.408;-4.498;2023-07-22T01:02:10;18.59;63.92
69944;DHT22;57257;48.408;-4.498;2023-07-22T01:04:36;18.56;64.08
69944;DHT22;57257;48.408;-4.498;2023-07-22T01:07:04;18.52;63.79
69944;DHT22;57257;48.408;-4.498;2023-07-22T01:09:38;18.47;64.02
69944;DHT22;57257;48.408;-4.498;2023-07-22T01:12:05;18.42;63.97
69944;DHT22;57257;48.408;-4.498;2023-07-22T01:14:37;18.44;63.98
69944;DHT22;57257;48.408;-4.498;2023-07-22T01:17:06;18.38;64.07
69944;DHT22;57257;48.408;-4.498;2023-07-22T01:19:34;18.37;64.12
69944;DHT22;57257;48.408;-4.498;2023-07-22T01:22:00;18.32;63.96
69944;DHT22;57257;48.408;-4.498;2023-07-22T01:24:27;18.25;63.96
69944;DHT22;57257;48.408;-4.498;2023-07-22T01:26:52;18.21;64.05
69944;DHT22;57257;48.408;-4.498;2023-07-22T01:29:18;18.18;64.27
69944;DHT22;57257;48.408;-4.498;2023-07-22T01:31:46;18.15;64.27
69944;DHT22;57257;48.408;-4.498;2023-07-22T01:34:12;18.15;64.23
69944;DHT22;57257;48.408;-4.498;2023-07-22T01:36:37;18.19;63.91
69944;DHT22;57257;48.408;-4.498;2023-07-22T01:39:03;18.15;63.88
69944;DHT22;57257;48.408;-4.498;2023-07-22T01:41:31;18.17;63.86
69944;DHT22;57257;48.408;-4.498;2023-07-22T01:43:56;18.14;63.85
69944;DHT22;57257;48.408;-4.498;2023-07-22T01:46:21;18.15;63.83
69944;DHT22;57257;48.408;-4.498;2023-07-22T01:48:47;18.08;63.79
69944;DHT22;57257;48.408;-4.498;2023-07-22T01:51:12;18.07;63.75
69944;DHT22;57257;48.408;-4.498;2023-07-22T01:53:38;18.08;63.73
69944;DHT22;57257;48.408;-4.498;2023-07-22T01:56:03;18.11;63.66
69944;DHT22;57257;48.408;-4.498;2023-07-22T01:58:30;18.11;63.60
69944;DHT22;57257;48.408;-4.498;2023-07-22T02:00:55;18.14;63.62
69944;DHT22;57257;48.408;-4.498;2023-07-22T02:03:21;18.22;63.43
69944;DHT22;57257;48.408;-4.498;2023-07-22T02:05:46;18.24;63.18
69944;DHT22;57257;48.408;-4.498;2023-07-22T02:08:12;18.27;62.92
69944;DHT22;57257;48.408;-4.498;2023-07-22T02:10:37;18.27;62.98
69944;DHT22;57257;48.408;-4.498;2023-07-22T02:13:03;18.28;62.89
69944;DHT22;57257;48.408;-4.498;2023-07-22T02:15:31;18.29;62.82
69944;DHT22;57257;48.408;-4.498;2023-07-22T02:17:57;18.31;63.06
69944;DHT22;57257;48.408;-4.498;2023-07-22T02:20:22;18.29;62.83
69944;DHT22;57257;48.408;-4.498;2023-07-22T02:22:48;18.32;62.89
69944;DHT22;57257;48.408;-4.498;2023-07-22T02:25:13;18.32;62.97
69944;DHT22;57257;48.408;-4.498;2023-07-22T02:27:40;18.35;63.09
69944;DHT22;57257;48.408;-4.498;2023-07-22T02:30:07;18.39;63.22
69944;DHT22;57257;48.408;-4.498;2023-07-22T02:32:38;18.42;63.28
69944;DHT22;57257;48.408;-4.498;2023-07-22T02:35:05;18.42;63.25
69944;DHT22;57257;48.408;-4.498;2023-07-22T02:37:31;18.45;63.11
69944;DHT22;57257;48.408;-4.498;2023-07-22T02:39:56;18.45;63.20
69944;DHT22;57257;48.408;-4.498;2023-07-22T02:42:22;18.42;63.49
69944;DHT22;57257;48.408;-4.498;2023-07-22T02:44:47;18.38;63.93
69944;DHT22;57257;48.408;-4.498;2023-07-22T02:47:13;18.39;64.22
69944;DHT22;57257;48.408;-4.498;2023-07-22T02:49:39;18.37;64.43
69944;DHT22;57257;48.408;-4.498;2023-07-22T02:52:05;18.34;64.35
69944;DHT22;57257;48.408;-4.498;2023-07-22T02:54:32;18.28;64.41
69944;DHT22;57257;48.408;-4.498;2023-07-22T02:56:57;18.31;64.70
69944;DHT22;57257;48.408;-4.498;2023-07-22T02:59:23;18.25;64.92
69944;DHT22;57257;48.408;-4.498;2023-07-22T03:01:49;18.25;64.99
69944;DHT22;57257;48.408;-4.498;2023-07-22T03:04:15;18.25;64.88
69944;DHT22;57257;48.408;-4.498;2023-07-22T03:06:40;18.29;64.85
69944;DHT22;57257;48.408;-4.498;2023-07-22T03:09:07;18.25;65.17
69944;DHT22;57257;48.408;-4.498;2023-07-22T03:11:32;18.25;65.28
69944;DHT22;57257;48.408;-4.498;2023-07-22T03:13:59;18.24;65.18
69944;DHT22;57257;48.408;-4.498;2023-07-22T03:16:25;18.25;65.48
69944;DHT22;57257;48.408;-4.498;2023-07-22T03:18:50;18.21;65.62
69944;DHT22;57257;48.408;-4.498;2023-07-22T03:21:16;18.22;65.38
69944;DHT22;57257;48.408;-4.498;2023-07-22T03:23:41;18.22;65.48
69944;DHT22;57257;48.408;-4.498;2023-07-22T03:26:06;18.27;65.51
69944;DHT22;57257;48.408;-4.498;2023-07-22T03:28:32;18.25;65.60
69944;DHT22;57257;48.408;-4.498;2023-07-22T03:30:57;18.27;65.79
69944;DHT22;57257;48.408;-4.498;2023-07-22T03:33:23;18.24;65.62
69944;DHT22;57257;48.408;-4.498;2023-07-22T03:35:48;18.27;65.62
69944;DHT22;57257;48.408;-4.498;2023-07-22T03:38:13;18.22;65.86
69944;DHT22;57257;48.408;-4.498;2023-07-22T03:40:39;18.22;65.82
69944;DHT22;57257;48.408;-4.498;2023-07-22T03:43:04;18.22;66.05
69944;DHT22;57257;48.408;-4.498;2023-07-22T03:45:30;18.22;65.91
69944;DHT22;57257;48.408;-4.498;2023-07-22T03:47:59;18.22;66.04
69944;DHT22;57257;48.408;-4.498;2023-07-22T03:50:26;18.19;66.15
69944;DHT22;57257;48.408;-4.498;2023-07-22T03:52:52;18.24;66.03
69944;DHT22;57257;48.408;-4.498;2023-07-22T03:55:17;18.27;66.25
69944;DHT22;57257;48.408;-4.498;2023-07-22T03:57:44;18.27;66.08
69944;DHT22;57257;48.408;-4.498;2023-07-22T04:00:10;18.28;66.15
69944;DHT22;57257;48.408;-4.498;2023-07-22T04:02:36;18.31;66.18
69944;DHT22;57257;48.408;-4.498;2023-07-22T04:05:01;18.31;66.24
69944;DHT22;57257;48.408;-4.498;2023-07-22T04:07:27;18.29;66.29
69944;DHT22;57257;48.408;-4.498;2023-07-22T04:09:52;18.32;66.25
69944;DHT22;57257;48.408;-4.498;2023-07-22T04:12:18;18.29;66.32
69944;DHT22;57257;48.408;-4.498;2023-07-22T04:14:43;18.29;66.42
69944;DHT22;57257;48.408;-4.498;2023-07-22T04:17:09;18.32;66.47
69944;DHT22;57257;48.408;-4.498;2023-07-22T04:19:34;18.28;66.38
69944;DHT22;57257;48.408;-4.498;2023-07-22T04:22:00;18.29;66.36
69944;DHT22;57257;48.408;-4.498;2023-07-22T04:24:30;18.28;66.34
69944;DHT22;57257;48.408;-4.498;2023-07-22T04:26:56;18.22;66.40
69944;DHT22;57257;48.408;-4.498;2023-07-22T04:29:22;18.21;66.47
69944;DHT22;57257;48.408;-4.498;2023-07-22T04:31:47;18.22;66.47
69944;DHT22;57257;48.408;-4.498;2023-07-22T04:34:12;18.24;66.52
69944;DHT22;57257;48.408;-4.498;2023-07-22T04:36:38;18.28;66.61
69944;DHT22;57257;48.408;-4.498;2023-07-22T04:39:03;18.28;66.45
69944;DHT22;57257;48.408;-4.498;2023-07-22T04:41:32;18.29;66.45
69944;DHT22;57257;48.408;-4.498;2023-07-22T04:43:58;18.29;66.33
69944;DHT22;57257;48.408;-4.498;2023-07-22T04:46:26;18.27;66.30
69944;DHT22;57257;48.408;-4.498;2023-07-22T04:48:55;18.29;66.21
69944;DHT22;57257;48.408;-4.498;2023-07-22T04:51:22;18.28;66.34
69944;DHT22;57257;48.408;-4.498;2023-07-22T04:53:47;18.27;66.57
69944;DHT22;57257;48.408;-4.498;2023-07-22T04:56:13;18.24;66.42
69944;DHT22;57257;48.408;-4.498;2023-07-22T04:58:38;18.25;66.47
69944;DHT22;57257;48.408;-4.498;2023-07-22T05:01:04;18.31;66.47
69944;DHT22;57257;48.408;-4.498;2023-07-22T05:03:29;18.28;66.29
69944;DHT22;57257;48.408;-4.498;2023-07-22T05:05:54;18.31;66.13
69944;DHT22;57257;48.408;-4.498;2023-07-22T05:08:20;18.28;66.14
69944;DHT22;57257;48.408;-4.498;2023-07-22T05:10:46;18.24;66.10
69944;DHT22;57257;48.408;-4.498;2023-07-22T05:13:11;18.24;66.23
69944;DHT22;57257;48.408;-4.498;2023-07-22T05:15:37;18.24;66.16
69944;DHT22;57257;48.408;-4.498;2023-07-22T05:18:02;18.25;66.26
69944;DHT22;57257;48.408;-4.498;2023-07-22T05:20:27;18.25;66.25
69944;DHT22;57257;48.408;-4.498;2023-07-22T05:22:54;18.27;66.21
69944;DHT22;57257;48.408;-4.498;2023-07-22T05:25:20;18.31;66.39
69944;DHT22;57257;48.408;-4.498;2023-07-22T05:27:45;18.28;66.44
69944;DHT22;57257;48.408;-4.498;2023-07-22T05:30:11;18.28;66.28
69944;DHT22;57257;48.408;-4.498;2023-07-22T05:32:36;18.31;66.22
69944;DHT22;57257;48.408;-4.498;2023-07-22T05:35:02;18.34;66.25
69944;DHT22;57257;48.408;-4.498;2023-07-22T05:37:30;18.35;66.09
69944;DHT22;57257;48.408;-4.498;2023-07-22T05:39:55;18.31;66.16
69944;DHT22;57257;48.408;-4.498;2023-07-22T05:42:21;18.29;66.26
69944;DHT22;57257;48.408;-4.498;2023-07-22T05:44:48;18.32;66.25
69944;DHT22;57257;48.408;-4.498;2023-07-22T05:47:13;18.38;66.35
69944;DHT22;57257;48.408;-4.498;2023-07-22T05:49:39;18.38;66.35
69944;DHT22;57257;48.408;-4.498;2023-07-22T05:52:05;18.41;66.32
69944;DHT22;57257;48.408;-4.498;2023-07-22T05:54:30;18.44;66.37
69944;DHT22;57257;48.408;-4.498;2023-07-22T05:56:55;18.42;66.50
69944;DHT22;57257;48.408;-4.498;2023-07-22T05:59:21;18.44;66.56
69944;DHT22;57257;48.408;-4.498;2023-07-22T06:01:46;18.47;66.45
69944;DHT22;57257;48.408;-4.498;2023-07-22T06:04:12;18.47;66.41
69944;DHT22;57257;48.408;-4.498;2023-07-22T06:06:37;18.47;66.65
69944;DHT22;57257;48.408;-4.498;2023-07-22T06:09:03;18.49;66.48
69944;DHT22;57257;48.408;-4.498;2023-07-22T06:11:28;18.49;66.53
69944;DHT22;57257;48.408;-4.498;2023-07-22T06:13:54;18.48;66.48
69944;DHT22;57257;48.408;-4.498;2023-07-22T06:16:19;18.49;66.56
69944;DHT22;57257;48.408;-4.498;2023-07-22T06:18:44;18.53;66.58
69944;DHT22;57257;48.408;-4.498;2023-07-22T06:21:10;18.61;66.45
69944;DHT22;57257;48.408;-4.498;2023-07-22T06:23:35;18.65;66.44
69944;DHT22;57257;48.408;-4.498;2023-07-22T06:26:02;18.68;66.51
69944;DHT22;57257;48.408;-4.498;2023-07-22T06:28:27;18.75;66.31
69944;DHT22;57257;48.408;-4.498;2023-07-22T06:30:52;18.76;66.01
69944;DHT22;57257;48.408;-4.498;2023-07-22T06:33:18;18.76;66.02
69944;DHT22;57257;48.408;-4.498;2023-07-22T06:35:43;18.82;66.00
69944;DHT22;57257;48.408;-4.498;2023-07-22T06:38:09;18.88;65.91
69944;DHT22;57257;48.408;-4.498;2023-07-22T06:40:34;18.99;65.79
69944;DHT22;57257;48.408;-4.498;2023-07-22T06:42:59;19.12;65.52
69944;DHT22;57257;48.408;-4.498;2023-07-22T06:45:25;19.20;65.33
69944;DHT22;57257;48.408;-4.498;2023-07-22T06:47:50;19.30;65.03
69944;DHT22;57257;48.408;-4.498;2023-07-22T06:50:16;19.37;64.95
69944;DHT22;57257;48.408;-4.498;2023-07-22T06:52:41;19.50;64.53
69944;DHT22;57257;48.408;-4.498;2023-07-22T06:55:07;19.58;64.04
69944;DHT22;57257;48.408;-4.498;2023-07-22T06:57:33;19.64;63.88
69944;DHT22;57257;48.408;-4.498;2023-07-22T06:59:58;19.75;63.53
69944;DHT22;57257;48.408;-4.498;2023-07-22T07:02:24;19.70;63.53
69944;DHT22;57257;48.408;-4.498;2023-07-22T07:04:50;19.74;63.48
69944;DHT22;57257;48.408;-4.498;2023-07-22T07:07:16;19.77;63.41
69944;DHT22;57257;48.408;-4.498;2023-07-22T07:09:41;19.90;63.21
69944;DHT22;57257;48.408;-4.498;2023-07-22T07:12:08;19.92;62.98
69944;DHT22;57257;48.408;-4.498;2023-07-22T07:14:33;19.97;62.87
69944;DHT22;57257;48.408;-4.498;2023-07-22T07:17:00;20.15;62.49
69944;DHT22;57257;48.408;-4.498;2023-07-22T07:19:26;20.25;61.95
69944;DHT22;57257;48.408;-4.498;2023-07-22T07:21:51;20.33;62.17
69944;DHT22;57257;48.408;-4.498;2023-07-22T07:24:17;20.45;61.73
69944;DHT22;57257;48.408;-4.498;2023-07-22T07:26:42;20.59;61.49
69944;DHT22;57257;48.408;-4.498;2023-07-22T07:29:08;20.66;60.84
69944;DHT22;57257;48.408;-4.498;2023-07-22T07:31:33;20.71;60.77
69944;DHT22;57257;48.408;-4.498;2023-07-22T07:33:59;20.71;60.60
69944;DHT22;57257;48.408;-4.498;2023-07-22T07:36:25;20.76;60.33
69944;DHT22;57257;48.408;-4.498;2023-07-22T07:38:50;20.89;60.17
69944;DHT22;57257;48.408;-4.498;2023-07-22T07:41:15;20.97;59.76
69944;DHT22;57257;48.408;-4.498;2023-07-22T07:43:41;20.92;59.42
69944;DHT22;57257;48.408;-4.498;2023-07-22T07:46:36;20.72;59.68
69944;DHT22;57257;48.408;-4.498;2023-07-22T07:49:02;20.65;60.10
69944;DHT22;57257;48.408;-4.498;2023-07-22T07:51:29;20.62;59.83
69944;DHT22;57257;48.408;-4.498;2023-07-22T07:53:55;20.51;59.80
69944;DHT22;57257;48.408;-4.498;2023-07-22T07:56:22;20.48;60.09
69944;DHT22;57257;48.408;-4.498;2023-07-22T07:58:49;20.62;59.97
69944;DHT22;57257;48.408;-4.498;2023-07-22T08:01:15;20.79;59.52
69944;DHT22;57257;48.408;-4.498;2023-07-22T08:03:42;20.93;59.46
69944;DHT22;57257;48.408;-4.498;2023-07-22T08:06:08;21.06;59.04
69944;DHT22;57257;48.408;-4.498;2023-07-22T08:08:35;21.20;58.56
69944;DHT22;57257;48.408;-4.498;2023-07-22T08:11:07;21.19;57.93
69944;DHT22;57257;48.408;-4.498;2023-07-22T08:13:33;21.22;58.21
69944;DHT22;57257;48.408;-4.498;2023-07-22T08:16:01;21.36;58.12
69944;DHT22;57257;48.408;-4.498;2023-07-22T08:18:26;21.23;57.72
69944;DHT22;57257;48.408;-4.498;2023-07-22T08:20:53;21.26;57.93
69944;DHT22;57257;48.408;-4.498;2023-07-22T08:23:19;21.22;57.79
69944;DHT22;57257;48.408;-4.498;2023-07-22T08:25:45;21.17;57.13
69944;DHT22;57257;48.408;-4.498;2023-07-22T08:28:10;21.13;57.84
69944;DHT22;57257;48.408;-4.498;2023-07-22T08:30:35;21.14;57.59
69944;DHT22;57257;48.408;-4.498;2023-07-22T08:33:01;21.24;57.57
69944;DHT22;57257;48.408;-4.498;2023-07-22T08:35:26;21.30;57.44
69944;DHT22;57257;48.408;-4.498;2023-07-22T08:37:52;21.41;57.23
69944;DHT22;57257;48.408;-4.498;2023-07-22T08:40:19;21.27;57.23
69944;DHT22;57257;48.408;-4.498;2023-07-22T08:42:45;21.30;57.62
69944;DHT22;57257;48.408;-4.498;2023-07-22T08:45:11;21.22;57.66
69944;DHT22;57257;48.408;-4.498;2023-07-22T08:47:45;21.27;57.51
69944;DHT22;57257;48.408;-4.498;2023-07-22T08:50:16;21.36;57.80
69944;DHT22;57257;48.408;-4.498;2023-07-22T08:52:44;21.44;57.02
69944;DHT22;57257;48.408;-4.498;2023-07-22T08:55:10;21.47;57.35
69944;DHT22;57257;48.408;-4.498;2023-07-22T08:57:36;21.50;57.18
69944;DHT22;57257;48.408;-4.498;2023-07-22T09:00:03;21.37;57.53
69944;DHT22;57257;48.408;-4.498;2023-07-22T09:02:33;21.19;58.23
69944;DHT22;57257;48.408;-4.498;2023-07-22T09:04:58;21.02;57.91
69944;DHT22;57257;48.408;-4.498;2023-07-22T09:07:24;20.92;58.09
69944;DHT22;57257;48.408;-4.498;2023-07-22T09:09:50;20.83;58.18
69944;DHT22;57257;48.408;-4.498;2023-07-22T09:12:17;20.79;57.95
69944;DHT22;57257;48.408;-4.498;2023-07-22T09:14:43;20.73;57.69
69944;DHT22;57257;48.408;-4.498;2023-07-22T09:17:09;20.73;57.56
69944;DHT22;57257;48.408;-4.498;2023-07-22T09:19:35;20.76;56.99
69944;DHT22;57257;48.408;-4.498;2023-07-22T09:22:00;20.80;56.84
69944;DHT22;57257;48.408;-4.498;2023-07-22T09:24:26;20.83;57.10
69944;DHT22;57257;48.408;-4.498;2023-07-22T09:26:57;20.95;57.00
69944;DHT22;57257;48.408;-4.498;2023-07-22T09:29:39;21.04;57.26
69944;DHT22;57257;48.408;-4.498;2023-07-22T09:32:09;21.24;56.57
69944;DHT22;57257;48.408;-4.498;2023-07-22T09:34:35;21.40;56.52
69944;DHT22;57257;48.408;-4.498;2023-07-22T09:37:00;21.54;55.90
69944;DHT22;57257;48.408;-4.498;2023-07-22T09:39:26;21.54;55.79
69944;DHT22;57257;48.408;-4.498;2023-07-22T09:41:52;21.46;55.93
69944;DHT22;57257;48.408;-4.498;2023-07-22T09:44:28;21.47;56.19
69944;DHT22;57257;48.408;-4.498;2023-07-22T09:46:53;21.62;55.34
69944;DHT22;57257;48.408;-4.498;2023-07-22T09:49:19;21.55;55.24
69944;DHT22;57257;48.408;-4.498;2023-07-22T09:51:44;21.54;55.47
69944;DHT22;57257;48.408;-4.498;2023-07-22T09:54:10;21.73;55.22
69944;DHT22;57257;48.408;-4.498;2023-07-22T09:56:46;21.94;54.87
69944;DHT22;57257;48.408;-4.498;2023-07-22T09:59:13;22.21;54.52
69944;DHT22;57257;48.408;-4.498;2023-07-22T10:01:39;22.41;53.46
69944;DHT22;57257;48.408;-4.498;2023-07-22T10:04:06;22.38;53.23
69944;DHT22;57257;48.408;-4.498;2023-07-22T10:06:32;22.28;53.87
69944;DHT22;57257;48.408;-4.498;2023-07-22T10:09:07;22.23;53.84
69944;DHT22;57257;48.408;-4.498;2023-07-22T10:11:35;22.29;53.69
69944;DHT22;57257;48.408;-4.498;2023-07-22T10:14:04;22.19;53.75
69944;DHT22;57257;48.408;-4.498;2023-07-22T10:16:30;22.12;54.34
69944;DHT22;57257;48.408;-4.498;2023-07-22T10:18:59;22.09;54.39
69944;DHT22;57257;48.408;-4.498;2023-07-22T10:21:25;21.84;54.75
69944;DHT22;57257;48.408;-4.498;2023-07-22T10:23:51;21.73;55.56
69944;DHT22;57257;48.408;-4.498;2023-07-22T10:26:18;21.75;55.94
69944;DHT22;57257;48.408;-4.498;2023-07-22T10:28:45;21.88;55.81
69944;DHT22;57257;48.408;-4.498;2023-07-22T10:31:12;22.06;55.61
69944;DHT22;57257;48.408;-4.498;2023-07-22T10:33:39;22.15;55.57
69944;DHT22;57257;48.408;-4.498;2023-07-22T10:36:08;22.04;55.73
69944;DHT22;57257;48.408;-4.498;2023-07-22T10:38:37;22.08;56.16
69944;DHT22;57257;48.408;-4.498;2023-07-22T10:41:12;22.06;56.22
69944;DHT22;57257;48.408;-4.498;2023-07-22T10:43:39;22.11;55.90
69944;DHT22;57257;48.408;-4.498;2023-07-22T10:46:12;22.08;56.28
69944;DHT22;57257;48.408;-4.498;2023-07-22T10:48:39;22.19;56.44
69944;DHT22;57257;48.408;-4.498;2023-07-22T10:51:11;22.18;56.42
69944;DHT22;57257;48.408;-4.498;2023-07-22T10:53:44;22.09;57.10
69944;DHT22;57257;48.408;-4.498;2023-07-22T11:04:14;21.98;57.36
69944;DHT22;57257;48.408;-4.498;2023-07-22T11:11:53;22.38;55.92
69944;DHT22;57257;48.408;-4.498;2023-07-22T11:14:27;22.51;55.88
69944;DHT22;57257;48.408;-4.498;2023-07-22T11:16:53;22.60;55.53
69944;DHT22;57257;48.408;-4.498;2023-07-22T11:19:22;22.65;54.52
69944;DHT22;57257;48.408;-4.498;2023-07-22T11:21:49;22.56;54.68
69944;DHT22;57257;48.408;-4.498;2023-07-22T11:24:15;22.66;54.91
69944;DHT22;57257;48.408;-4.498;2023-07-22T11:26:41;22.80;55.14
69944;DHT22;57257;48.408;-4.498;2023-07-22T11:29:08;22.97;54.91
69944;DHT22;57257;48.408;-4.498;2023-07-22T11:31:36;23.07;54.50
69944;DHT22;57257;48.408;-4.498;2023-07-22T11:34:03;23.11;54.01
69944;DHT22;57257;48.408;-4.498;2023-07-22T11:36:28;23.14;53.24
69944;DHT22;57257;48.408;-4.498;2023-07-22T11:38:54;23.16;52.85
69944;DHT22;57257;48.408;-4.498;2023-07-22T11:41:26;23.00;53.19
69944;DHT22;57257;48.408;-4.498;2023-07-22T11:43:51;23.17;53.71
69944;DHT22;57257;48.408;-4.498;2023-07-22T11:46:17;23.30;52.52
69944;DHT22;57257;48.408;-4.498;2023-07-22T11:48:52;23.31;52.55
69944;DHT22;57257;48.408;-4.498;2023-07-22T11:51:20;23.44;52.20
69944;DHT22;57257;48.408;-4.498;2023-07-22T11:53:48;23.46;52.27
69944;DHT22;57257;48.408;-4.498;2023-07-22T11:56:22;23.43;51.79
69944;DHT22;57257;48.408;-4.498;2023-07-22T11:58:52;23.37;52.04
69944;DHT22;57257;48.408;-4.498;2023-07-22T12:01:18;23.34;51.82
69944;DHT22;57257;48.408;-4.498;2023-07-22T12:03:43;23.31;51.85
69944;DHT22;57257;48.408;-4.498;2023-07-22T12:06:09;23.27;52.10
69944;DHT22;57257;48.408;-4.498;2023-07-22T12:08:35;23.06;52.72
69944;DHT22;57257;48.408;-4.498;2023-07-22T12:11:01;22.87;53.30
69944;DHT22;57257;48.408;-4.498;2023-07-22T12:13:28;22.62;53.68
69944;DHT22;57257;48.408;-4.498;2023-07-22T12:16:03;22.55;53.92
69944;DHT22;57257;48.408;-4.498;2023-07-22T12:18:46;22.43;54.05
69944;DHT22;57257;48.408;-4.498;2023-07-22T12:21:12;22.31;54.52
69944;DHT22;57257;48.408;-4.498;2023-07-22T12:23:38;22.23;54.87
69944;DHT22;57257;48.408;-4.498;2023-07-22T12:26:07;22.06;55.72
69944;DHT22;57257;48.408;-4.498;2023-07-22T12:28:33;22.06;55.68
69944;DHT22;57257;48.408;-4.498;2023-07-22T12:30:58;22.00;55.93
69944;DHT22;57257;48.408;-4.498;2023-07-22T12:33:24;21.87;56.50
69944;DHT22;57257;48.408;-4.498;2023-07-22T12:35:50;21.88;56.55
69944;DHT22;57257;48.408;-4.498;2023-07-22T12:38:16;21.75;56.77
69944;DHT22;57257;48.408;-4.498;2023-07-22T12:40:42;21.65;57.10
69944;DHT22;57257;48.408;-4.498;2023-07-22T12:43:07;21.47;58.05
69944;DHT22;57257;48.408;-4.498;2023-07-22T12:45:33;21.40;58.41
69944;DHT22;57257;48.408;-4.498;2023-07-22T12:47:59;21.27;58.10
69944;DHT22;57257;48.408;-4.498;2023-07-22T12:50:24;21.13;58.00
69944;DHT22;57257;48.408;-4.498;2023-07-22T12:52:50;21.10;58.23
69944;DHT22;57257;48.408;-4.498;2023-07-22T12:55:15;21.11;58.14
69944;DHT22;57257;48.408;-4.498;2023-07-22T12:57:41;21.16;58.34
69944;DHT22;57257;48.408;-4.498;2023-07-22T13:00:06;21.16;57.96
69944;DHT22;57257;48.408;-4.498;2023-07-22T13:02:35;21.00;58.53
69944;DHT22;57257;48.408;-4.498;2023-07-22T13:05:00;20.96;58.72
69944;DHT22;57257;48.408;-4.498;2023-07-22T13:07:26;20.97;58.83
69944;DHT22;57257;48.408;-4.498;2023-07-22T13:09:51;20.92;58.79
69944;DHT22;57257;48.408;-4.498;2023-07-22T13:12:21;20.83;59.40
69944;DHT22;57257;48.408;-4.498;2023-07-22T13:14:47;20.82;59.57
69944;DHT22;57257;48.408;-4.498;2023-07-22T13:17:12;20.71;60.05
69944;DHT22;57257;48.408;-4.498;2023-07-22T13:19:38;20.66;60.29
69944;DHT22;57257;48.408;-4.498;2023-07-22T13:22:03;20.57;60.75
69944;DHT22;57257;48.408;-4.498;2023-07-22T13:24:29;20.56;60.87
69944;DHT22;57257;48.408;-4.498;2023-07-22T13:26:54;20.53;61.12
69944;DHT22;57257;48.408;-4.498;2023-07-22T13:29:20;20.51;61.53
69944;DHT22;57257;48.408;-4.498;2023-07-22T13:31:45;20.57;61.22
69944;DHT22;57257;48.408;-4.498;2023-07-22T13:34:11;20.62;61.17
69944;DHT22;57257;48.408;-4.498;2023-07-22T13:36:36;20.57;61.45
69944;DHT22;57257;48.408;-4.498;2023-07-22T13:39:01;20.52;61.61
69944;DHT22;57257;48.408;-4.498;2023-07-22T13:41:27;20.55;61.71
69944;DHT22;57257;48.408;-4.498;2023-07-22T13:43:53;20.56;61.67
69944;DHT22;57257;48.408;-4.498;2023-07-22T13:46:19;20.57;61.65
69944;DHT22;57257;48.408;-4.498;2023-07-22T13:48:44;20.55;61.91
69944;DHT22;57257;48.408;-4.498;2023-07-22T13:51:10;20.55;62.05
69944;DHT22;57257;48.408;-4.498;2023-07-22T13:53:35;20.43;62.23
69944;DHT22;57257;48.408;-4.498;2023-07-22T13:56:01;20.33;62.36
69944;DHT22;57257;48.408;-4.498;2023-07-22T13:58:26;20.24;62.69
69944;DHT22;57257;48.408;-4.498;2023-07-22T14:00:52;20.24;62.80
69944;DHT22;57257;48.408;-4.498;2023-07-22T14:03:17;20.18;63.13
69944;DHT22;57257;48.408;-4.498;2023-07-22T14:05:43;20.22;63.19
69944;DHT22;57257;48.408;-4.498;2023-07-22T14:08:08;20.22;63.22
69944;DHT22;57257;48.408;-4.498;2023-07-22T14:10:33;20.25;63.41
69944;DHT22;57257;48.408;-4.498;2023-07-22T14:12:59;20.22;63.51
69944;DHT22;57257;48.408;-4.498;2023-07-22T14:15:24;20.25;63.68
69944;DHT22;57257;48.408;-4.498;2023-07-22T14:17:50;20.19;63.95
69944;DHT22;57257;48.408;-4.498;2023-07-22T14:20:15;20.15;63.96
69944;DHT22;57257;48.408;-4.498;2023-07-22T14:22:41;20.17;64.16
69944;DHT22;57257;48.408;-4.498;2023-07-22T14:25:08;20.19;64.06
69944;DHT22;57257;48.408;-4.498;2023-07-22T14:27:33;20.21;64.00
69944;DHT22;57257;48.408;-4.498;2023-07-22T14:30:00;20.25;63.90
69944;DHT22;57257;48.408;-4.498;2023-07-22T14:32:26;20.24;63.92
69944;DHT22;57257;48.408;-4.498;2023-07-22T14:34:51;20.19;64.07
69944;DHT22;57257;48.408;-4.498;2023-07-22T14:37:17;20.12;64.24
69944;DHT22;57257;48.408;-4.498;2023-07-22T14:39:42;20.01;64.51
69944;DHT22;57257;48.408;-4.498;2023-07-22T14:42:07;20.00;64.71
69944;DHT22;57257;48.408;-4.498;2023-07-22T14:44:33;20.02;64.62
69944;DHT22;57257;48.408;-4.498;2023-07-22T14:46:58;19.91;64.79
69944;DHT22;57257;48.408;-4.498;2023-07-22T14:49:24;19.84;65.04
69944;DHT22;57257;48.408;-4.498;2023-07-22T14:51:49;19.75;65.31
69944;DHT22;57257;48.408;-4.498;2023-07-22T14:54:15;19.71;65.33
69944;DHT22;57257;48.408;-4.498;2023-07-22T14:56:40;19.66;65.54
69944;DHT22;57257;48.408;-4.498;2023-07-22T14:59:06;19.60;65.66
69944;DHT22;57257;48.408;-4.498;2023-07-22T15:01:40;19.56;65.86
69944;DHT22;57257;48.408;-4.498;2023-07-22T15:04:06;19.63;65.69
69944;DHT22;57257;48.408;-4.498;2023-07-22T15:06:32;19.51;65.96
69944;DHT22;57257;48.408;-4.498;2023-07-22T15:08:58;19.54;65.97
69944;DHT22;57257;48.408;-4.498;2023-07-22T15:11:23;19.51;66.16
69944;DHT22;57257;48.408;-4.498;2023-07-22T15:13:49;19.53;66.08
69944;DHT22;57257;48.408;-4.498;2023-07-22T15:16:14;19.49;66.28
69944;DHT22;57257;48.408;-4.498;2023-07-22T15:18:41;19.47;66.37
69944;DHT22;57257;48.408;-4.498;2023-07-22T15:21:06;19.41;66.61
69944;DHT22;57257;48.408;-4.498;2023-07-22T15:23:32;19.38;66.75